createdAt,value
2018-11-27T00:02:31.337Z,21.40
2018-11-27T00:07:34.887Z,18.27
2018-11-27T00:12:39.480Z,17.77
2018-11-27T00:17:43.004Z,18.10
2018-11-27T00:22:46.501Z,15.30
2018-11-27T00:27:50.049Z,19.00
2018-11-27T00:32:53.694Z,18.03
2018-11-27T00:37:57.294Z,17.70
2018-11-27T00:43:02.905Z,17.30
2018-11-27T00:48:06.747Z,14.97
2018-11-27T00:53:10.337Z,16.37
2018-11-27T00:58:14.942Z,18.00
2018-11-27T01:03:18.494Z,16.30
2018-11-27T01:08:23.117Z,18.77
2018-11-27T01:13:26.725Z,17.23
2018-11-27T01:18:30.221Z,16.13
2018-11-27T01:23:33.809Z,16.47
2018-11-27T01:28:37.351Z,17.97
2018-11-27T01:33:41.897Z,20.17
2018-11-27T01:38:45.392Z,17.67
2018-11-27T01:43:48.892Z,16.77
2018-11-27T01:48:52.677Z,18.67
2018-11-27T01:53:56.237Z,15.77
2018-11-27T01:58:59.748Z,17.20
2018-11-27T02:04:03.469Z,18.70
2018-11-27T02:09:08.644Z,15.40
2018-11-27T02:14:12.443Z,14.60
2018-11-27T02:19:16.034Z,15.40
2018-11-27T02:24:19.529Z,17.43
2018-11-27T02:29:23.052Z,16.93
2018-11-27T02:34:26.589Z,20.30
2018-11-27T02:39:30.330Z,17.57
2018-11-27T02:44:33.810Z,17.90
2018-11-27T02:49:37.366Z,18.53
2018-11-27T02:54:40.954Z,18.83
2018-11-27T02:59:44.525Z,17.60
2018-11-27T03:04:48.269Z,18.23
2018-11-27T03:09:51.873Z,21.10
2018-11-27T03:14:55.418Z,18.00
2018-11-27T03:20:02.183Z,18.97
2018-11-27T03:25:07.984Z,17.97
2018-11-27T03:30:15.701Z,15.70
2018-11-27T03:35:23.273Z,16.83
2018-11-27T03:40:29.021Z,16.97
2018-11-27T03:45:32.658Z,15.70
2018-11-27T03:50:37.283Z,18.47
2018-11-27T03:55:40.904Z,18.50
2018-11-27T04:00:44.420Z,16.97
2018-11-27T04:05:49.112Z,21.93
2018-11-27T04:10:52.609Z,18.63
2018-11-27T04:15:56.275Z,16.53
2018-11-27T04:20:59.813Z,16.50
2018-11-27T04:26:03.364Z,15.07
2018-11-27T04:31:06.934Z,18.37
2018-11-27T04:36:10.502Z,18.90
2018-11-27T04:41:14.070Z,20.53
2018-11-27T04:46:17.623Z,34.23
2018-11-27T04:51:21.249Z,19.03
2018-11-27T04:56:24.842Z,19.47
2018-11-27T05:01:28.325Z,19.53
2018-11-27T05:06:38.502Z,20.00
2018-11-27T05:11:42.033Z,20.37
2018-11-27T05:16:45.624Z,18.53
2018-11-27T05:21:50.242Z,20.83
2018-11-27T05:26:53.737Z,18.63
2018-11-27T05:31:57.274Z,19.07
2018-11-27T05:37:00.856Z,22.87
2018-11-27T05:42:04.461Z,18.97
2018-11-27T05:47:07.964Z,24.17
2018-11-27T05:52:11.497Z,18.93
2018-11-27T05:57:15.049Z,20.33
2018-11-27T06:02:18.690Z,20.93
2018-11-27T06:07:22.704Z,21.67
2018-11-27T06:12:26.192Z,18.73
2018-11-27T06:17:29.805Z,18.03
2018-11-27T06:22:33.305Z,17.80
2018-11-27T06:27:36.839Z,19.53
2018-11-27T06:32:40.432Z,19.07
2018-11-27T06:37:48.453Z,23.87
2018-11-27T06:42:52.103Z,22.67
2018-11-27T06:47:55.801Z,18.60
2018-11-27T06:53:00.334Z,20.03
2018-11-27T06:58:04.137Z,20.60
2018-11-27T07:03:11.409Z,21.53
2018-11-27T07:08:15.312Z,21.83
2018-11-27T07:13:22.678Z,18.63
2018-11-27T07:18:26.529Z,22.33
2018-11-27T07:23:33.484Z,23.03
2018-11-27T07:28:38.229Z,20.60
2018-11-27T07:33:43.913Z,21.70
2018-11-27T07:38:47.524Z,21.00
2018-11-27T07:43:51.149Z,24.73
2018-11-27T07:48:54.794Z,23.47
2018-11-27T07:53:58.400Z,26.13
2018-11-27T07:59:05.744Z,19.77
2018-11-27T08:04:09.508Z,23.97
2018-11-27T08:09:13.217Z,23.40
2018-11-27T08:14:16.769Z,24.87
2018-11-27T08:19:20.774Z,20.73
2018-11-27T08:24:24.669Z,23.57
2018-11-27T08:29:28.393Z,21.53
2018-11-27T08:34:40.328Z,25.97
2018-11-27T08:39:44.104Z,29.43
2018-11-27T08:44:47.717Z,24.87
2018-11-27T08:49:51.406Z,24.00
2018-11-27T08:54:54.993Z,22.63
2018-11-27T08:59:58.522Z,22.67
2018-11-27T09:05:02.054Z,31.03
2018-11-27T09:10:08.722Z,28.17
2018-11-27T09:15:14.353Z,24.00
2018-11-27T09:20:17.957Z,21.50
2018-11-27T09:25:21.564Z,22.47
2018-11-27T09:30:27.097Z,22.27
2018-11-27T09:35:31.465Z,26.43
2018-11-27T09:40:35.052Z,22.47
2018-11-27T09:45:39.963Z,23.00
2018-11-27T09:50:43.537Z,27.93
2018-11-27T09:55:47.052Z,23.70
2018-11-27T10:00:50.681Z,24.20
2018-11-27T10:05:55.265Z,23.40
2018-11-27T10:10:58.858Z,26.57
2018-11-27T10:16:02.401Z,30.40
2018-11-27T10:21:06.082Z,26.23
2018-11-27T10:26:09.687Z,28.23
2018-11-27T10:31:13.262Z,27.93
2018-11-27T10:36:16.849Z,30.70
2018-11-27T10:41:20.598Z,32.53
2018-11-27T10:46:24.201Z,37.80
2018-11-27T10:51:27.715Z,28.07
2018-11-27T10:56:31.358Z,31.93
2018-11-27T11:02:37.566Z,25.30
2018-11-27T11:07:42.266Z,28.57
2018-11-27T11:12:46.047Z,30.20
2018-11-27T11:17:49.690Z,27.30
2018-11-27T11:22:53.310Z,22.27
2018-11-27T11:27:59.190Z,27.77
2018-11-27T11:33:02.764Z,29.37
2018-11-27T11:38:06.850Z,41.30
2018-11-27T11:43:10.555Z,24.73
2018-11-27T11:48:20.214Z,27.13
2018-11-27T11:53:23.802Z,23.43
2018-11-27T11:58:27.414Z,21.20
2018-11-27T12:03:32.103Z,23.17
2018-11-27T12:08:35.729Z,24.47
2018-11-27T12:13:39.320Z,23.63
2018-11-27T12:18:46.101Z,25.17
2018-11-27T12:23:49.714Z,25.10
2018-11-27T12:28:53.351Z,28.47
2018-11-27T12:33:57.101Z,22.17
2018-11-27T12:39:01.817Z,21.60
2018-11-27T12:44:05.574Z,20.10
2018-11-27T12:49:09.237Z,21.87
2018-11-27T12:54:12.867Z,19.50
2018-11-27T12:59:20.642Z,22.27
2018-11-27T13:04:24.202Z,23.17
2018-11-27T13:09:31.134Z,23.47
2018-11-27T13:14:35.672Z,19.83
2018-11-27T13:19:39.362Z,24.00
2018-11-27T13:24:43.014Z,29.43
2018-11-27T13:29:46.679Z,22.53
2018-11-27T13:34:57.716Z,25.37
2018-11-27T13:40:01.448Z,20.20
2018-11-27T13:45:06.491Z,19.73
2018-11-27T13:50:13.990Z,24.73
2018-11-27T13:55:19.752Z,26.50
2018-11-27T14:00:25.665Z,24.80
2018-11-27T14:05:29.346Z,23.03
2018-11-27T14:10:34.004Z,24.67
2018-11-27T14:15:38.759Z,22.70
2018-11-27T14:20:42.531Z,24.97
2018-11-27T14:25:46.324Z,21.53
2018-11-27T14:30:49.905Z,22.73
2018-11-27T14:35:53.561Z,27.27
2018-11-27T14:40:57.197Z,27.17
2018-11-27T14:46:00.846Z,24.17
2018-11-27T14:51:05.671Z,23.27
2018-11-27T14:56:14.849Z,23.27
2018-11-27T15:01:20.537Z,26.97
2018-11-27T15:06:24.159Z,25.50
2018-11-27T15:11:28.070Z,29.50
2018-11-27T15:16:33.793Z,23.73
2018-11-27T15:21:37.355Z,26.80
2018-11-27T15:26:41.005Z,27.87
2018-11-27T15:31:45.705Z,26.90
2018-11-27T15:36:50.393Z,29.20
2018-11-27T15:41:53.901Z,25.50
2018-11-27T15:46:57.406Z,28.13
2018-11-27T15:52:01.967Z,25.37
2018-11-27T15:57:05.630Z,30.93
2018-11-27T16:02:09.311Z,26.60
2018-11-27T16:07:12.904Z,24.23
2018-11-27T16:12:17.542Z,30.57
2018-11-27T16:17:22.182Z,27.43
2018-11-27T16:22:26.750Z,26.03
2018-11-27T16:27:31.327Z,27.50
2018-11-27T16:32:34.897Z,24.90
2018-11-27T16:37:38.666Z,27.43
2018-11-27T16:42:42.283Z,24.40
2018-11-27T16:47:46.164Z,28.80
2018-11-27T16:52:50.929Z,27.87
2018-11-27T16:57:54.452Z,29.87
2018-11-27T17:03:00.989Z,25.07
2018-11-27T17:08:04.561Z,33.53
2018-11-27T17:13:09.383Z,25.50
2018-11-27T17:18:13.645Z,25.93
2018-11-27T17:23:18.514Z,26.07
2018-11-27T17:28:28.195Z,34.87
2018-11-27T17:34:07.694Z,35.07
2018-11-27T17:39:13.751Z,27.20
2018-11-27T17:44:17.524Z,26.93
2018-11-27T17:49:21.017Z,28.93
2018-11-27T17:54:25.616Z,32.70
2018-11-27T17:59:29.113Z,30.80
2018-11-27T18:04:32.839Z,27.10
2018-11-27T18:09:36.348Z,32.50
2018-11-27T18:14:44.206Z,37.50
2018-11-27T18:19:47.850Z,32.27
2018-11-27T18:24:51.485Z,29.27
2018-11-27T18:29:55.086Z,31.67
2018-11-27T18:34:58.604Z,33.00
2018-11-27T18:40:02.173Z,34.80
2018-11-27T18:45:09.129Z,32.57
2018-11-27T18:50:13.183Z,29.93
2018-11-27T18:55:17.925Z,37.13
2018-11-27T19:00:23.518Z,31.97
2018-11-27T19:05:27.181Z,29.77
2018-11-27T19:10:32.883Z,31.57
2018-11-27T19:15:41.421Z,29.23
2018-11-27T19:20:54.588Z,33.20
2018-11-27T19:25:58.142Z,33.87
2018-11-27T19:31:01.827Z,33.83
2018-11-27T19:36:21.566Z,41.13
2018-11-27T19:41:28.532Z,31.90
2018-11-27T19:46:32.175Z,34.07
2018-11-27T19:51:36.777Z,35.60
2018-11-27T19:56:40.307Z,36.73
2018-11-27T20:01:43.840Z,35.20
2018-11-27T20:06:47.377Z,37.60
2018-11-27T20:11:51.119Z,43.03
2018-11-27T20:16:54.699Z,33.37
2018-11-27T20:21:58.318Z,41.50
2018-11-27T20:27:01.917Z,37.30
2018-11-27T20:32:07.525Z,34.53
2018-11-27T20:37:11.132Z,38.83
2018-11-27T20:42:15.694Z,31.90
2018-11-27T20:47:19.461Z,30.37
2018-11-27T20:52:23.103Z,38.90
2018-11-27T20:57:26.782Z,31.17
2018-11-27T21:02:32.389Z,34.40
2018-11-27T21:07:36.021Z,39.00
2018-11-27T21:12:39.827Z,31.43
2018-11-27T21:17:43.527Z,38.97
2018-11-27T21:22:47.461Z,37.63
2018-11-27T21:28:04.796Z,42.00
2018-11-27T21:33:12.196Z,34.00
2018-11-27T21:38:16.888Z,38.70
2018-11-27T21:43:25.279Z,51.73
2018-11-27T21:48:29.262Z,35.27
2018-11-27T21:53:33.492Z,30.40
2018-11-27T21:58:39.401Z,41.23
2018-11-27T22:03:44.958Z,36.67
2018-11-27T22:08:51.002Z,35.07
2018-11-27T22:13:54.677Z,38.57
2018-11-27T22:18:58.217Z,41.17
2018-11-27T22:24:01.906Z,42.17
2018-11-27T22:29:05.658Z,39.17
2018-11-27T22:34:13.061Z,36.17
2018-11-27T22:39:16.580Z,36.33
2018-11-27T22:44:23.354Z,39.03
2018-11-27T22:49:26.917Z,36.83
2018-11-27T22:54:30.440Z,34.97
2018-11-27T22:59:33.942Z,41.33
2018-11-27T23:04:37.510Z,44.13
2018-11-27T23:09:41.027Z,44.03
2018-11-27T23:14:44.539Z,41.07
2018-11-27T23:19:48.073Z,35.53
2018-11-27T23:24:57.630Z,44.80
2018-11-27T23:30:01.193Z,39.50
2018-11-27T23:35:05.128Z,36.80
2018-11-27T23:40:11.210Z,38.40
2018-11-27T23:45:16.679Z,40.77
2018-11-27T23:50:21.273Z,37.00
2018-11-27T23:55:24.905Z,38.27
